Time,TemperatureF,DewpointF,PressureIn,WindDirection,WindDirectionDegrees,WindSpeedMPH,WindSpeedGustMPH,Humidity,HourlyPrecipIn,Conditions,Clouds,dailyrainin,SoftwareType,DateUTC
2013-12-21 00:00:00,4.4,2.1,29.89,WSW,249,1.0,12.0,90,0.00,,,0.00,Wunderground v.1.15,2013-12-21 06:00:00,
2013-12-21 00:02:00,4.6,2.3,29.89,West,278,1.0,12.0,90,0.00,,,0.00,Wunderground v.1.15,2013-12-21 06:02:00,
2013-12-21 00:04:00,4.7,2.7,29.89,West,270,1.0,12.0,91,0.00,,,0.00,Wunderground v.1.15,2013-12-21 06:04:00,
2013-12-21 00:06:00,4.8,2.8,29.89,West,270,1.0,12.0,91,0.00,,,0.00,Wunderground v.1.15,2013-12-21 06:06:00,
2013-12-21 00:08:00,4.8,2.8,29.89,West,259,1.0,12.0,91,0.00,,,0.00,Wunderground v.1.15,2013-12-21 06:08:00,
2013-12-21 00:12:00,4.8,2.8,29.89,West,259,1.0,1.0,91,0.00,,,0.00,Wunderground v.1.15,2013-12-21 06:12:00,
2013-12-21 00:14:00,4.9,2.8,29.89,West,259,1.0,1.0,91,0.00,,,0.00,Wunderground v.1.15,2013-12-21 06:14:00,
2013-12-21 00:18:00,4.9,2.8,29.90,West,259,1.0,1.0,91,0.00,,,0.00,Wunderground v.1.15,2013-12-21 06:18:00,
2013-12-21 00:20:00,4.9,2.8,29.89,West,260,0.0,0.0,91,0.00,,,0.00,Wunderground v.1.15,2013-12-21 06:20:00,
2013-12-21 00:22:00,4.9,2.8,29.89,West,260,0.0,1.0,91,0.00,,,0.00,Wunderground v.1.15,2013-12-21 06:22:00,
2013-12-21 00:24:00,4.8,2.8,29.89,West,260,0.0,1.0,91,0.00,,,0.00,Wunderground v.1.15,2013-12-21 06:24:00,
2013-12-21 00:26:00,4.7,2.4,29.89,West,259,1.0,1.0,90,0.00,,,0.00,Wunderground v.1.15,2013-12-21 06:26:00,
2013-12-21 00:28:00,4.6,2.3,29.89,West,259,0.0,1.0,90,0.00,,,0.00,Wunderground v.1.15,2013-12-21 06:28:00,
2013-12-21 00:29:00,4.6,2.3,29.89,West,259,0.0,0.0,90,0.00,,,0.00,Wunderground v.1.15,2013-12-21 06:29:00,
2013-12-21 00:31:00,4.7,2.4,29.88,West,259,0.0,1.0,90,0.00,,,0.00,Wunderground v.1.15,2013-12-21 06:31:00,
2013-12-21 00:36:00,4.8,2.8,29.88,West,260,0.0,1.0,91,0.00,,,0.00,Wunderground v.1.15,2013-12-21 06:36:00,
2013-12-21 00:38:00,4.8,2.8,29.88,West,260,0.0,1.0,91,0.00,,,0.00,Wunderground v.1.15,2013-12-21 06:38:00,
2013-12-21 00:40:00,4.8,2.5,29.88,West,259,0.0,0.0,90,0.00,,,0.00,Wunderground v.1.15,2013-12-21 06:40:00,
2013-12-21 00:42:00,4.7,2.4,29.88,West,260,0.0,0.0,90,0.00,,,0.00,Wunderground v.1.15,2013-12-21 06:42:00,
2013-12-21 00:48:00,5.1,3.0,29.88,West,259,0.0,0.0,91,0.00,,,0.00,Wunderground v.1.15,2013-12-21 06:48:00,
2013-12-21 00:50:00,5.3,3.2,29.89,West,259,0.0,0.0,91,0.00,,,0.00,Wunderground v.1.15,2013-12-21 06:50:00,
2013-12-21 00:54:00,5.6,3.8,29.88,West,259,0.0,0.0,92,0.00,,,0.00,Wunderground v.1.15,2013-12-21 06:54:00,
2013-12-21 00:55:00,5.7,3.9,29.88,West,259,0.0,0.0,92,0.00,,,0.00,Wunderground v.1.15,2013-12-21 06:55:00,
2013-12-21 00:57:00,5.8,4.0,29.89,West,259,0.0,0.0,92,0.00,,,0.00,Wunderground v.1.15,2013-12-21 06:57:00,
2013-12-21 01:04:00,6.2,4.4,29.89,West,259,0.0,2.0,92,0.00,,,0.00,Wunderground v.1.15,2013-12-21 07:04:00,
2013-12-21 01:06:00,6.3,4.5,29.89,West,259,0.0,2.0,92,0.00,,,0.00,Wunderground v.1.15,2013-12-21 07:06:00,
2013-12-21 01:10:00,6.2,4.1,29.88,West,259,0.0,2.0,91,0.00,,,0.00,Wunderground v.1.15,2013-12-21 07:10:00,
2013-12-21 01:12:00,6.2,4.1,29.88,West,259,0.0,2.0,91,0.00,,,0.00,Wunderground v.1.15,2013-12-21 07:12:00,
2013-12-21 01:18:00,6.0,3.9,29.88,West,259,0.0,2.0,91,0.00,,,0.00,Wunderground v.1.15,2013-12-21 07:18:00,
2013-12-21 01:21:00,5.8,3.7,29.88,West,259,0.0,2.0,91,0.00,,,0.00,Wunderground v.1.15,2013-12-21 07:21:00,
2013-12-21 01:26:00,5.8,3.7,29.89,West,260,0.0,2.0,91,0.00,,,0.00,Wunderground v.1.15,2013-12-21 07:26:00,
2013-12-21 01:28:00,5.7,3.6,29.89,West,260,0.0,2.0,91,0.00,,,0.00,Wunderground v.1.15,2013-12-21 07:28:00,
2013-12-21 01:30:00,5.6,3.5,29.89,West,259,0.0,2.0,91,0.00,,,0.00,Wunderground v.1.15,2013-12-21 07:30:00,
2013-12-21 01:32:00,5.5,3.2,29.88,West,259,0.0,2.0,90,0.00,,,0.00,Wunderground v.1.15,2013-12-21 07:32:00,
2013-12-21 01:34:00,5.4,3.1,29.89,West,259,0.0,2.0,90,0.00,,,0.00,Wunderground v.1.15,2013-12-21 07:34:00,
2013-12-21 01:38:00,5.3,3.0,29.89,West,259,0.0,2.0,90,0.00,,,0.00,Wunderground v.1.15,2013-12-21 07:38:00,
2013-12-21 01:40:00,5.2,2.9,29.89,West,259,0.0,2.0,90,0.00,,,0.00,Wunderground v.1.15,2013-12-21 07:40:00,
2013-12-21 01:44:00,5.2,2.9,29.90,West,259,0.0,2.0,90,0.00,,,0.00,Wunderground v.1.15,2013-12-21 07:44:00,
2013-12-21 01:46:00,5.4,3.3,29.90,West,259,0.0,2.0,91,0.00,,,0.00,Wunderground v.1.15,2013-12-21 07:46:00,
2013-12-21 01:47:00,5.4,3.3,29.90,West,259,0.0,2.0,91,0.00,,,0.00,Wunderground v.1.15,2013-12-21 07:47:00,
2013-12-21 01:49:00,5.4,3.3,29.89,West,259,0.0,2.0,91,0.00,,,0.00,Wunderground v.1.15,2013-12-21 07:49:00,
2013-12-21 01:56:00,5.4,3.3,29.90,West,259,0.0,2.0,91,0.00,,,0.00,Wunderground v.1.15,2013-12-21 07:56:00,
2013-12-21 01:58:00,5.5,3.4,29.90,West,259,0.0,2.0,91,0.00,,,0.00,Wunderground v.1.15,2013-12-21 07:58:00,
2013-12-21 02:00:00,5.4,3.3,29.89,West,259,0.0,2.0,91,0.00,,,0.00,Wunderground v.1.15,2013-12-21 08:00:00,
2013-12-21 02:06:00,5.6,3.5,29.90,West,259,0.0,2.0,91,0.00,,,0.00,Wunderground v.1.15,2013-12-21 08:06:00,
2013-12-21 02:09:00,5.8,3.7,29.90,West,259,0.0,2.0,91,0.00,,,0.00,Wunderground v.1.15,2013-12-21 08:09:00,
2013-12-21 02:11:00,5.8,3.7,29.90,West,259,0.0,2.0,91,0.00,,,0.00,Wunderground v.1.15,2013-12-21 08:11:00,
2013-12-21 02:14:00,5.8,3.7,29.89,West,259,0.0,2.0,91,0.00,,,0.00,Wunderground v.1.15,2013-12-21 08:14:00,
2013-12-21 02:16:00,5.9,3.8,29.89,West,260,0.0,2.0,91,0.00,,,0.00,Wunderground v.1.15,2013-12-21 08:16:00,
2013-12-21 02:18:00,6.1,4.0,29.89,West,260,0.0,2.0,91,0.00,,,0.00,Wunderground v.1.15,2013-12-21 08:18:00,
2013-12-21 02:22:00,6.1,4.0,29.89,West,260,0.0,2.0,91,0.00,,,0.00,Wunderground v.1.15,2013-12-21 08:22:00,
2013-12-21 02:24:00,6.2,4.1,29.89,West,260,0.0,2.0,91,0.00,,,0.00,Wunderground v.1.15,2013-12-21 08:24:00,
2013-12-21 02:30:00,6.2,4.1,29.89,West,259,0.0,2.0,91,0.00,,,0.00,Wunderground v.1.15,2013-12-21 08:30:00,
2013-12-21 02:32:00,6.2,4.1,29.89,SE,145,0.0,2.0,91,0.00,,,0.00,Wunderground v.1.15,2013-12-21 08:32:00,
2013-12-21 02:35:00,6.2,4.1,29.89,SE,146,0.0,2.0,91,0.00,,,0.00,Wunderground v.1.15,2013-12-21 08:35:00,
2013-12-21 02:37:00,6.3,4.2,29.89,SE,145,0.0,2.0,91,0.00,,,0.00,Wunderground v.1.15,2013-12-21 08:37:00,
2013-12-21 02:40:00,6.3,4.2,29.89,SE,145,0.0,2.0,91,0.00,,,0.00,Wunderground v.1.15,2013-12-21 08:40:00,
2013-12-21 02:46:00,6.5,4.4,29.90,SE,145,0.0,2.0,91,0.00,,,0.00,Wunderground v.1.15,2013-12-21 08:46:00,
2013-12-21 02:50:00,6.6,4.5,29.90,SE,146,0.0,2.0,91,0.00,,,0.00,Wunderground v.1.15,2013-12-21 08:50:00,
2013-12-21 02:52:00,6.7,4.6,29.90,SE,145,0.0,2.0,91,0.00,,,0.00,Wunderground v.1.15,2013-12-21 08:52:00,
2013-12-21 02:54:00,6.8,5.0,29.90,SE,145,0.0,2.0,92,0.00,,,0.00,Wunderground v.1.15,2013-12-21 08:54:00,
2013-12-21 02:55:00,6.9,5.1,29.89,SE,145,0.0,2.0,92,0.00,,,0.00,Wunderground v.1.15,2013-12-21 08:55:00,
2013-12-21 02:57:00,7.1,5.3,29.89,SE,145,0.0,2.0,92,0.00,,,0.00,Wunderground v.1.15,2013-12-21 08:57:00,
2013-12-21 03:02:00,7.2,5.4,29.90,SE,146,0.0,2.0,92,0.00,,,0.00,Wunderground v.1.15,2013-12-21 09:02:00,
2013-12-21 03:06:00,7.3,5.2,29.90,SE,146,0.0,2.0,91,0.00,,,0.00,Wunderground v.1.15,2013-12-21 09:06:00,
2013-12-21 03:08:00,7.3,5.2,29.90,SE,145,0.0,2.0,91,0.00,,,0.00,Wunderground v.1.15,2013-12-21 09:08:00,
2013-12-21 03:10:00,7.3,5.2,29.90,SE,145,0.0,2.0,91,0.00,,,0.00,Wunderground v.1.15,2013-12-21 09:10:00,
2013-12-21 03:14:00,7.5,5.4,29.89,SE,145,0.0,2.0,91,0.00,,,0.00,Wunderground v.1.15,2013-12-21 09:14:00,
2013-12-21 03:16:00,7.6,5.8,29.89,SE,146,0.0,2.0,92,0.00,,,0.00,Wunderground v.1.15,2013-12-21 09:16:00,
2013-12-21 03:20:00,7.8,6.0,29.89,SE,145,0.0,2.0,92,0.00,,,0.00,Wunderground v.1.15,2013-12-21 09:20:00,
2013-12-21 03:24:00,8.0,6.2,29.89,SE,146,0.0,2.0,92,0.00,,,0.00,Wunderground v.1.15,2013-12-21 09:24:00,
2013-12-21 03:26:00,8.1,6.3,29.88,SE,145,0.0,2.0,92,0.00,,,0.00,Wunderground v.1.15,2013-12-21 09:26:00,
2013-12-21 03:28:00,8.2,6.4,29.88,SE,145,0.0,2.0,92,0.00,,,0.00,Wunderground v.1.15,2013-12-21 09:28:00,
2013-12-21 03:31:00,8.4,6.6,29.88,SE,145,0.0,2.0,92,0.00,,,0.00,Wunderground v.1.15,2013-12-21 09:31:00,
2013-12-21 03:34:00,8.6,6.8,29.88,SE,145,0.0,2.0,92,0.00,,,0.00,Wunderground v.1.15,2013-12-21 09:34:00,
2013-12-21 03:36:00,8.7,6.9,29.88,SE,143,0.0,2.0,92,0.00,,,0.00,Wunderground v.1.15,2013-12-21 09:36:00,
2013-12-21 03:38:00,8.8,7.0,29.88,North,350,0.0,2.0,92,0.00,,,0.00,Wunderground v.1.15,2013-12-21 09:38:00,
2013-12-21 03:40:00,8.9,7.1,29.88,North,1,0.0,2.0,92,0.00,,,0.00,Wunderground v.1.15,2013-12-21 09:40:00,
2013-12-21 03:42:00,9.0,7.1,29.88,North,360,0.0,2.0,92,0.00,,,0.00,Wunderground v.1.15,2013-12-21 09:42:00,
2013-12-21 03:46:00,9.2,7.3,29.88,North,358,1.0,2.0,92,0.00,,,0.00,Wunderground v.1.15,2013-12-21 09:46:00,
2013-12-21 03:48:00,9.3,7.4,29.87,North,6,1.0,2.0,92,0.00,,,0.00,Wunderground v.1.15,2013-12-21 09:48:00,
2013-12-21 03:50:00,9.4,7.5,29.86,North,9,1.0,2.0,92,0.00,,,0.00,Wunderground v.1.15,2013-12-21 09:50:00,
2013-12-21 03:51:00,9.4,7.5,29.87,North,350,1.0,2.0,92,0.00,,,0.00,Wunderground v.1.15,2013-12-21 09:51:00,
2013-12-21 03:53:00,9.5,7.6,29.87,North,360,2.0,2.0,92,0.00,,,0.00,Wunderground v.1.15,2013-12-21 09:53:00,
2013-12-21 03:56:00,9.5,7.6,29.86,NNE,13,2.0,2.0,92,0.00,,,0.00,Wunderground v.1.15,2013-12-21 09:56:00,
2013-12-21 03:58:00,9.6,7.7,29.86,NNE,29,2.0,2.0,92,0.00,,,0.00,Wunderground v.1.15,2013-12-21 09:58:00,
2013-12-21 04:00:00,9.6,7.7,29.87,NNE,30,2.0,2.0,92,0.00,,,0.00,Wunderground v.1.15,2013-12-21 10:00:00,
2013-12-21 04:02:00,9.7,7.8,29.86,NNE,30,2.0,2.0,92,0.00,,,0.00,Wunderground v.1.15,2013-12-21 10:02:00,
2013-12-21 04:04:00,9.8,7.9,29.87,NNE,30,2.0,2.0,92,0.00,,,0.00,Wunderground v.1.15,2013-12-21 10:04:00,
2013-12-21 04:06:00,9.8,7.9,29.86,NNE,30,1.0,2.0,92,0.00,,,0.00,Wunderground v.1.15,2013-12-21 10:06:00,
2013-12-21 04:08:00,9.9,8.0,29.86,NNE,31,1.0,2.0,92,0.00,,,0.00,Wunderground v.1.15,2013-12-21 10:08:00,
2013-12-21 04:10:00,9.9,8.0,29.86,NNE,31,1.0,1.0,92,0.00,,,0.00,Wunderground v.1.15,2013-12-21 10:10:00,
2013-12-21 04:12:00,9.9,8.0,29.86,NNE,32,1.0,2.0,92,0.00,,,0.00,Wunderground v.1.15,2013-12-21 10:12:00,
2013-12-21 04:17:00,10.0,8.1,29.86,NNE,32,0.0,2.0,92,0.00,,,0.00,Wunderground v.1.15,2013-12-21 10:17:00,
2013-12-21 04:22:00,10.1,8.2,29.86,NNE,31,1.0,2.0,92,0.00,,,0.00,Wunderground v.1.15,2013-12-21 10:22:00,
2013-12-21 04:24:00,10.2,8.3,29.86,ENE,58,1.0,2.0,92,0.00,,,0.00,Wunderground v.1.15,2013-12-21 10:24:00,
2013-12-21 04:28:00,10.2,8.3,29.86,NE,50,1.0,2.0,92,0.00,,,0.00,Wunderground v.1.15,2013-12-21 10:28:00,
2013-12-21 04:30:00,10.2,8.3,29.86,NE,41,1.0,2.0,92,0.00,,,0.00,Wunderground v.1.15,2013-12-21 10:30:00,
2013-12-21 04:32:00,10.2,8.3,29.85,NNE,30,1.0,2.0,92,0.00,,,0.00,Wunderground v.1.15,2013-12-21 10:32:00,
2013-12-21 04:34:00,10.1,8.2,29.85,NNE,30,2.0,2.0,92,0.00,,,0.00,Wunderground v.1.15,2013-12-21 10:34:00,
2013-12-21 04:36:00,10.1,8.0,29.85,NNE,33,2.0,2.0,91,0.00,,,0.00,Wunderground v.1.15,2013-12-21 10:36:00,
2013-12-21 04:38:00,10.0,7.9,29.85,NE,34,2.0,3.0,91,0.00,,,0.00,Wunderground v.1.15,2013-12-21 10:38:00,
2013-12-21 04:42:00,10.0,7.9,29.85,NNE,23,2.0,2.0,91,0.00,,,0.00,Wunderground v.1.15,2013-12-21 10:42:00,
2013-12-21 04:43:00,10.0,8.1,29.85,NNE,27,2.0,3.0,92,0.00,,,0.00,Wunderground v.1.15,2013-12-21 10:43:00,
2013-12-21 04:45:00,10.0,8.1,29.86,NNE,26,2.0,3.0,92,0.00,,,0.00,Wunderground v.1.15,2013-12-21 10:45:00,
2013-12-21 04:48:00,10.1,8.2,29.86,NNE,23,2.0,3.0,92,0.00,,,0.00,Wunderground v.1.15,2013-12-21 10:48:00,
2013-12-21 04:50:00,10.2,8.3,29.86,NNE,33,3.0,3.0,92,0.00,,,0.00,Wunderground v.1.15,2013-12-21 10:50:00,
2013-12-21 04:52:00,10.3,8.4,29.86,North,6,3.0,3.0,92,0.00,,,0.00,Wunderground v.1.15,2013-12-21 10:52:00,
2013-12-21 04:56:00,10.4,8.5,29.85,NNE,20,3.0,4.0,92,0.00,,,0.00,Wunderground v.1.15,2013-12-21 10:56:00,
2013-12-21 04:58:00,10.5,8.6,29.85,North,11,3.0,4.0,92,0.00,,,0.00,Wunderground v.1.15,2013-12-21 10:58:00,
2013-12-21 05:00:00,10.6,8.7,29.85,NNE,20,3.0,3.0,92,0.00,,,0.00,Wunderground v.1.15,2013-12-21 11:00:00,
2013-12-21 05:03:00,10.8,8.9,29.86,NNE,33,3.0,3.0,92,0.00,,,0.00,Wunderground v.1.15,2013-12-21 11:03:00,
2013-12-21 05:05:00,10.9,9.0,29.86,NNE,32,2.0,3.0,92,0.00,,,0.00,Wunderground v.1.15,2013-12-21 11:05:00,
2013-12-21 05:08:00,11.0,9.1,29.86,NNE,27,2.0,3.0,92,0.00,,,0.00,Wunderground v.1.15,2013-12-21 11:08:00,
2013-12-21 05:12:00,11.1,9.2,29.87,NNE,27,2.0,2.0,92,0.00,,,0.00,Wunderground v.1.15,2013-12-21 11:12:00,
2013-12-21 05:14:00,11.2,9.3,29.86,NNE,29,1.0,2.0,92,0.00,,,0.00,Wunderground v.1.15,2013-12-21 11:14:00,
2013-12-21 05:16:00,11.3,9.4,29.86,NNE,29,1.0,2.0,92,0.00,,,0.00,Wunderground v.1.15,2013-12-21 11:16:00,
2013-12-21 05:22:00,11.4,9.5,29.86,NE,46,1.0,2.0,92,0.00,,,0.00,Wunderground v.1.15,2013-12-21 11:22:00,
2013-12-21 05:26:00,11.5,9.6,29.87,NE,50,1.0,2.0,92,0.00,,,0.00,Wunderground v.1.15,2013-12-21 11:26:00,
2013-12-21 05:28:00,11.5,9.6,29.86,NE,46,1.0,2.0,92,0.00,,,0.00,Wunderground v.1.15,2013-12-21 11:28:00,
2013-12-21 05:29:00,11.6,10.0,29.87,NE,36,1.0,3.0,93,0.00,,,0.00,Wunderground v.1.15,2013-12-21 11:29:00,
2013-12-21 05:31:00,11.7,10.1,29.88,ENE,57,1.0,3.0,93,0.00,,,0.00,Wunderground v.1.15,2013-12-21 11:31:00,
2013-12-21 05:34:00,11.8,10.2,29.87,NE,50,2.0,3.0,93,0.00,,,0.00,Wunderground v.1.15,2013-12-21 11:34:00,
2013-12-21 05:38:00,11.8,9.9,29.88,NNE,19,2.0,3.0,92,0.00,,,0.00,Wunderground v.1.15,2013-12-21 11:38:00,
2013-12-21 05:40:00,11.8,9.9,29.88,NE,49,2.0,2.0,92,0.00,,,0.00,Wunderground v.1.15,2013-12-21 11:40:00,
2013-12-21 05:42:00,11.8,9.9,29.88,NNE,32,2.0,2.0,92,0.00,,,0.00,Wunderground v.1.15,2013-12-21 11:42:00,
2013-12-21 05:44:00,11.7,9.8,29.88,ENE,63,2.0,2.0,92,0.00,,,0.00,Wunderground v.1.15,2013-12-21 11:44:00,
2013-12-21 05:50:00,11.8,9.9,29.88,ENE,66,1.0,3.0,92,0.00,,,0.00,Wunderground v.1.15,2013-12-21 11:50:00,
2013-12-21 05:51:00,11.8,9.9,29.88,ENE,62,1.0,3.0,92,0.00,,,0.00,Wunderground v.1.15,2013-12-21 11:51:00,
2013-12-21 05:58:00,11.8,9.9,29.88,NE,56,2.0,3.0,92,0.00,,,0.00,Wunderground v.1.15,2013-12-21 11:58:00,
2013-12-21 06:00:00,11.8,9.9,29.88,NNE,31,2.0,2.0,92,0.00,,,0.00,Wunderground v.1.15,2013-12-21 12:00:00,
2013-12-21 06:02:00,11.8,9.9,29.88,NE,51,2.0,2.0,92,0.00,,,0.00,Wunderground v.1.15,2013-12-21 12:02:00,
2013-12-21 06:04:00,11.8,9.9,29.88,NE,34,2.0,4.0,92,0.00,,,0.00,Wunderground v.1.15,2013-12-21 12:04:00,
2013-12-21 06:06:00,11.8,9.9,29.88,NE,37,2.0,4.0,92,0.00,,,0.00,Wunderground v.1.15,2013-12-21 12:06:00,
2013-12-21 06:10:00,11.8,9.9,29.89,NE,34,2.0,2.0,92,0.00,,,0.00,Wunderground v.1.15,2013-12-21 12:10:00,
2013-12-21 06:12:00,11.7,9.8,29.89,NNE,32,1.0,2.0,92,0.00,,,0.00,Wunderground v.1.15,2013-12-21 12:12:00,
2013-12-21 06:16:00,11.8,9.9,29.88,NNE,33,1.0,2.0,92,0.00,,,0.00,Wunderground v.1.15,2013-12-21 12:16:00,
2013-12-21 06:18:00,11.8,9.9,29.88,NNE,33,1.0,2.0,92,0.00,,,0.00,Wunderground v.1.15,2013-12-21 12:18:00,
2013-12-21 06:20:00,11.8,9.9,29.88,NE,34,1.0,2.0,92,0.00,,,0.00,Wunderground v.1.15,2013-12-21 12:20:00,
2013-12-21 06:23:00,11.9,10.0,29.88,ENE,57,1.0,2.0,92,0.00,,,0.00,Wunderground v.1.15,2013-12-21 12:23:00,
2013-12-21 06:28:00,11.9,10.0,29.88,East,98,1.0,2.0,92,0.00,,,0.00,Wunderground v.1.15,2013-12-21 12:28:00,
2013-12-21 06:30:00,11.9,10.0,29.88,East,90,1.0,1.0,92,0.00,,,0.00,Wunderground v.1.15,2013-12-21 12:30:00,
2013-12-21 06:32:00,11.9,10.0,29.89,East,88,0.0,2.0,92,0.00,,,0.00,Wunderground v.1.15,2013-12-21 12:32:00,
2013-12-21 06:36:00,12.0,10.1,29.89,ENE,60,0.0,2.0,92,0.00,,,0.00,Wunderground v.1.15,2013-12-21 12:36:00,
2013-12-21 06:38:00,12.0,10.1,29.89,East,89,0.0,2.0,92,0.00,,,0.00,Wunderground v.1.15,2013-12-21 12:38:00,
2013-12-21 06:40:00,12.0,10.1,29.88,SE,142,0.0,2.0,92,0.00,,,0.00,Wunderground v.1.15,2013-12-21 12:40:00,
2013-12-21 06:42:00,12.0,10.1,29.88,NNE,26,0.0,3.0,92,0.00,,,0.00,Wunderground v.1.15,2013-12-21 12:42:00,
2013-12-21 06:44:00,12.0,10.1,29.88,NE,41,1.0,3.0,92,0.00,,,0.00,Wunderground v.1.15,2013-12-21 12:44:00,
2013-12-21 06:46:00,11.9,10.0,29.88,ENE,70,1.0,3.0,92,0.00,,,0.00,Wunderground v.1.15,2013-12-21 12:46:00,
2013-12-21 06:49:00,11.8,9.9,29.87,ESE,111,1.0,1.0,92,0.00,,,0.00,Wunderground v.1.15,2013-12-21 12:49:00,
2013-12-21 06:52:00,11.8,9.9,29.86,ENE,63,1.0,3.0,92,0.00,,,0.00,Wunderground v.1.15,2013-12-21 12:52:00,
2013-12-21 06:54:00,11.8,9.9,29.86,East,98,1.0,3.0,92,0.00,,,0.00,Wunderground v.1.15,2013-12-21 12:54:00,
2013-12-21 06:56:00,11.8,9.9,29.86,East,95,1.0,3.0,92,0.00,,,0.00,Wunderground v.1.15,2013-12-21 12:56:00,
2013-12-21 06:58:00,11.7,9.8,29.86,East,95,1.0,3.0,92,0.00,,,0.00,Wunderground v.1.15,2013-12-21 12:58:00,
2013-12-21 07:00:00,11.7,9.8,29.87,ENE,77,1.0,2.0,92,0.00,,,0.00,Wunderground v.1.15,2013-12-21 13:00:00,
2013-12-21 07:02:00,11.6,9.7,29.87,ESE,121,1.0,2.0,92,0.00,,,0.00,Wunderground v.1.15,2013-12-21 13:02:00,
2013-12-21 07:04:00,11.7,9.8,29.87,ENE,60,1.0,3.0,92,0.00,,,0.00,Wunderground v.1.15,2013-12-21 13:04:00,
2013-12-21 07:06:00,11.6,9.7,29.88,ENE,75,1.0,3.0,92,0.00,,,0.00,Wunderground v.1.15,2013-12-21 13:06:00,
2013-12-21 07:09:00,11.6,9.7,29.89,ENE,60,1.0,1.0,92,0.00,,,0.00,Wunderground v.1.15,2013-12-21 13:09:00,
2013-12-21 07:11:00,11.5,9.6,29.88,ENE,60,1.0,2.0,92,0.00,,,0.00,Wunderground v.1.15,2013-12-21 13:11:00,
2013-12-21 07:14:00,11.5,9.6,29.88,NE,56,1.0,4.0,92,0.00,,,0.00,Wunderground v.1.15,2013-12-21 13:14:00,
2013-12-21 07:16:00,11.4,9.5,29.89,NE,43,1.0,4.0,92,0.00,,,0.00,Wunderground v.1.15,2013-12-21 13:16:00,
2013-12-21 07:20:00,11.3,9.2,29.89,East,86,1.0,1.0,91,0.00,,,0.00,Wunderground v.1.15,2013-12-21 13:20:00,
2013-12-21 07:22:00,11.3,9.2,29.89,ENE,78,1.0,2.0,91,0.00,,,0.00,Wunderground v.1.15,2013-12-21 13:22:00,
2013-12-21 07:24:00,11.3,9.2,29.89,ENE,71,1.0,2.0,91,0.00,,,0.00,Wunderground v.1.15,2013-12-21 13:24:00,
2013-12-21 07:26:00,11.3,9.2,29.90,ENE,68,1.0,2.0,91,0.00,,,0.00,Wunderground v.1.15,2013-12-21 13:26:00,
2013-12-21 07:28:00,11.3,9.2,29.90,ENE,68,1.0,2.0,91,0.00,,,0.00,Wunderground v.1.15,2013-12-21 13:28:00,
2013-12-21 07:29:00,11.3,9.2,29.90,East,89,1.0,1.0,91,0.00,,,0.00,Wunderground v.1.15,2013-12-21 13:29:00,
2013-12-21 07:31:00,11.3,9.4,29.91,East,87,1.0,2.0,92,0.00,,,0.00,Wunderground v.1.15,2013-12-21 13:31:00,
2013-12-21 07:36:00,11.3,9.4,29.90,NE,52,0.0,2.0,92,0.00,,,0.00,Wunderground v.1.15,2013-12-21 13:36:00,
2013-12-21 07:38:00,11.3,9.4,29.91,NE,53,0.0,2.0,92,0.00,,,0.00,Wunderground v.1.15,2013-12-21 13:38:00,
2013-12-21 07:42:00,11.3,9.4,29.91,NE,52,0.0,2.0,92,0.00,,,0.00,Wunderground v.1.15,2013-12-21 13:42:00,
2013-12-21 07:44:00,11.3,9.4,29.91,ENE,61,0.0,2.0,92,0.00,,,0.00,Wunderground v.1.15,2013-12-21 13:44:00,
2013-12-21 07:50:00,11.3,9.4,29.91,ENE,60,0.0,2.0,92,0.00,,,0.00,Wunderground v.1.15,2013-12-21 13:50:00,
2013-12-21 07:53:00,11.3,9.4,29.91,ENE,63,0.0,2.0,92,0.00,,,0.00,Wunderground v.1.15,2013-12-21 13:53:00,
2013-12-21 07:56:00,11.4,9.5,29.91,ENE,70,0.0,2.0,92,0.00,,,0.00,Wunderground v.1.15,2013-12-21 13:56:00,
2013-12-21 08:02:00,11.4,9.5,29.91,East,100,0.0,2.0,92,0.00,,,0.00,Wunderground v.1.15,2013-12-21 14:02:00,
2013-12-21 08:04:00,11.4,9.5,29.92,East,98,0.0,2.0,92,0.00,,,0.00,Wunderground v.1.15,2013-12-21 14:04:00,
2013-12-21 08:06:00,11.4,9.5,29.92,ENE,72,0.0,2.0,92,0.00,,,0.00,Wunderground v.1.15,2013-12-21 14:06:00,
2013-12-21 08:08:00,11.4,9.5,29.92,NE,39,0.0,2.0,92,0.00,,,0.00,Wunderground v.1.15,2013-12-21 14:08:00,
2013-12-21 08:10:00,11.4,9.5,29.92,NE,38,1.0,1.0,92,0.00,,,0.00,Wunderground v.1.15,2013-12-21 14:10:00,
2013-12-21 08:12:00,11.4,9.5,29.92,NE,39,1.0,2.0,92,0.00,,,0.00,Wunderground v.1.15,2013-12-21 14:12:00,
2013-12-21 08:16:00,11.5,9.6,29.92,ENE,69,1.0,2.0,92,0.00,,,0.00,Wunderground v.1.15,2013-12-21 14:16:00,
2013-12-21 08:17:00,11.5,9.6,29.92,ENE,68,1.0,2.0,92,0.00,,,0.00,Wunderground v.1.15,2013-12-21 14:17:00,
2013-12-21 08:24:00,11.5,9.4,29.92,NE,39,2.0,2.0,91,0.00,,,0.00,Wunderground v.1.15,2013-12-21 14:24:00,
2013-12-21 08:26:00,11.5,9.4,29.92,ENE,60,2.0,2.0,91,0.00,,,0.00,Wunderground v.1.15,2013-12-21 14:26:00,
2013-12-21 08:30:00,11.5,9.4,29.92,NE,56,2.0,2.0,91,0.00,,,0.00,Wunderground v.1.15,2013-12-21 14:30:00,
2013-12-21 08:32:00,11.6,9.5,29.92,ENE,62,2.0,3.0,91,0.00,,,0.00,Wunderground v.1.15,2013-12-21 14:32:00,
2013-12-21 08:34:00,11.6,9.5,29.93,ENE,71,2.0,3.0,91,0.00,,,0.00,Wunderground v.1.15,2013-12-21 14:34:00,
2013-12-21 08:36:00,11.6,9.5,29.93,ENE,65,2.0,3.0,91,0.00,,,0.00,Wunderground v.1.15,2013-12-21 14:36:00,
2013-12-21 08:37:00,11.6,9.5,29.93,ESE,107,2.0,3.0,91,0.00,,,0.00,Wunderground v.1.15,2013-12-21 14:37:00,
2013-12-21 08:39:00,11.7,9.6,29.93,NE,51,2.0,2.0,91,0.00,,,0.00,Wunderground v.1.15,2013-12-21 14:39:00,
2013-12-21 08:41:00,11.7,9.6,29.92,ENE,58,1.0,3.0,91,0.00,,,0.00,Wunderground v.1.15,2013-12-21 14:41:00,
2013-12-21 08:44:00,11.8,9.7,29.92,NE,46,1.0,5.0,91,0.00,,,0.00,Wunderground v.1.15,2013-12-21 14:44:00,
2013-12-21 08:46:00,11.8,9.7,29.92,ENE,69,2.0,5.0,91,0.00,,,0.00,Wunderground v.1.15,2013-12-21 14:46:00,
2013-12-21 08:48:00,11.8,9.7,29.92,East,98,2.0,5.0,91,0.00,,,0.00,Wunderground v.1.15,2013-12-21 14:48:00,
2013-12-21 08:52:00,12.0,10.1,29.93,ENE,62,2.0,2.0,92,0.00,,,0.00,Wunderground v.1.15,2013-12-21 14:52:00,
2013-12-21 08:54:00,12.1,10.2,29.92,East,91,2.0,2.0,92,0.00,,,0.00,Wunderground v.1.15,2013-12-21 14:54:00,
2013-12-21 08:56:00,12.1,10.2,29.93,ESE,103,1.0,2.0,92,0.00,,,0.00,Wunderground v.1.15,2013-12-21 14:56:00,
2013-12-21 08:58:00,12.2,10.3,29.93,NE,49,1.0,3.0,92,0.00,,,0.00,Wunderground v.1.15,2013-12-21 14:58:00,
2013-12-21 08:59:00,12.2,10.3,29.93,NE,49,1.0,3.0,92,0.00,,,0.00,Wunderground v.1.15,2013-12-21 14:59:00,
2013-12-21 09:06:00,12.4,10.5,29.93,NE,56,2.0,3.0,92,0.00,,,0.00,Wunderground v.1.15,2013-12-21 15:06:00,
2013-12-21 09:08:00,12.4,10.5,29.93,ENE,65,2.0,3.0,92,0.00,,,0.00,Wunderground v.1.15,2013-12-21 15:08:00,
2013-12-21 09:10:00,12.5,10.6,29.93,ENE,72,2.0,2.0,92,0.00,,,0.00,Wunderground v.1.15,2013-12-21 15:10:00,
2013-12-21 09:12:00,12.5,10.6,29.92,ENE,72,2.0,2.0,92,0.00,,,0.00,Wunderground v.1.15,2013-12-21 15:12:00,
2013-12-21 09:14:00,12.6,10.7,29.92,NE,50,1.0,3.0,92,0.00,,,0.00,Wunderground v.1.15,2013-12-21 15:14:00,
2013-12-21 09:16:00,12.8,11.2,29.92,ENE,62,1.0,3.0,93,0.00,,,0.00,Wunderground v.1.15,2013-12-21 15:16:00,
2013-12-21 09:20:00,12.9,11.3,29.92,NE,40,2.0,2.0,93,0.00,,,0.00,Wunderground v.1.15,2013-12-21 15:20:00,
2013-12-21 09:21:00,13.0,11.4,29.92,ENE,66,2.0,2.0,93,0.00,,,0.00,Wunderground v.1.15,2013-12-21 15:21:00,
2013-12-21 09:26:00,13.3,11.7,29.92,East,95,2.0,3.0,93,0.00,,,0.00,Wunderground v.1.15,2013-12-21 15:26:00,
2013-12-21 09:28:00,13.4,11.8,29.92,ENE,60,2.0,3.0,93,0.00,,,0.00,Wunderground v.1.15,2013-12-21 15:28:00,
2013-12-21 09:32:00,13.6,12.0,29.92,NE,42,2.0,3.0,93,0.00,,,0.00,Wunderground v.1.15,2013-12-21 15:32:00,
2013-12-21 09:34:00,13.8,12.2,29.92,ENE,77,2.0,4.0,93,0.00,,,0.00,Wunderground v.1.15,2013-12-21 15:34:00,
2013-12-21 09:36:00,13.8,12.2,29.92,NE,40,2.0,4.0,93,0.00,,,0.00,Wunderground v.1.15,2013-12-21 15:36:00,
2013-12-21 09:42:00,13.9,12.3,29.92,East,90,2.0,5.0,93,0.00,,,0.00,Wunderground v.1.15,2013-12-21 15:42:00,
2013-12-21 09:44:00,14.0,12.3,29.93,SSW,210,2.0,5.0,93,0.00,,,0.00,Wunderground v.1.15,2013-12-21 15:44:00,
2013-12-21 09:46:00,14.1,12.4,29.94,South,187,2.0,5.0,93,0.00,,,0.00,Wunderground v.1.15,2013-12-21 15:46:00,
2013-12-21 09:50:00,14.3,12.6,29.95,SSE,165,2.0,2.0,93,0.00,,,0.00,Wunderground v.1.15,2013-12-21 15:50:00,
2013-12-21 09:52:00,14.3,12.6,29.95,SSW,193,1.0,2.0,93,0.00,,,0.00,Wunderground v.1.15,2013-12-21 15:52:00,
2013-12-21 09:55:00,14.3,12.6,29.95,SSW,208,1.0,2.0,93,0.00,,,0.00,Wunderground v.1.15,2013-12-21 15:55:00,
2013-12-21 09:57:00,14.3,12.6,29.94,ENE,75,1.0,2.0,93,0.00,,,0.00,Wunderground v.1.15,2013-12-21 15:57:00,
2013-12-21 10:00:00,14.4,12.7,29.94,ESE,105,1.0,1.0,93,0.00,,,0.00,Wunderground v.1.15,2013-12-21 16:00:00,
2013-12-21 10:04:00,14.4,12.7,29.94,ENE,60,1.0,2.0,93,0.00,,,0.00,Wunderground v.1.15,2013-12-21 16:04:00,
2013-12-21 10:06:00,14.5,12.8,29.94,ENE,68,1.0,2.0,93,0.00,,,0.00,Wunderground v.1.15,2013-12-21 16:06:00,
2013-12-21 10:08:00,14.6,12.9,29.93,ENE,61,1.0,2.0,93,0.00,,,0.00,Wunderground v.1.15,2013-12-21 16:08:00,
2013-12-21 10:10:00,14.7,13.0,29.94,ENE,65,2.0,2.0,93,0.00,,,0.00,Wunderground v.1.15,2013-12-21 16:10:00,
2013-12-21 10:14:00,14.8,13.1,29.93,ENE,58,2.0,2.0,93,0.00,,,0.00,Wunderground v.1.15,2013-12-21 16:14:00,
2013-12-21 10:18:00,14.9,13.2,29.93,NE,47,2.0,3.0,93,0.00,,,0.00,Wunderground v.1.15,2013-12-21 16:18:00,
2013-12-21 10:20:00,14.9,13.2,29.94,ENE,64,2.0,3.0,93,0.00,,,0.00,Wunderground v.1.15,2013-12-21 16:20:00,
2013-12-21 10:26:00,15.1,13.4,29.92,East,85,3.0,3.0,93,0.00,,,0.00,Wunderground v.1.15,2013-12-21 16:26:00,
2013-12-21 10:28:00,15.3,13.6,29.92,ENE,58,3.0,4.0,93,0.00,,,0.00,Wunderground v.1.15,2013-12-21 16:28:00,
2013-12-21 10:29:00,15.4,13.7,29.92,ENE,62,3.0,5.0,93,0.00,,,0.00,Wunderground v.1.15,2013-12-21 16:29:00,
2013-12-21 10:31:00,15.3,13.6,29.92,East,79,3.0,5.0,93,0.00,,,0.00,Wunderground v.1.15,2013-12-21 16:31:00,
2013-12-21 10:34:00,15.3,13.6,29.92,East,101,3.0,5.0,93,0.00,,,0.00,Wunderground v.1.15,2013-12-21 16:34:00,
2013-12-21 10:36:00,15.3,13.6,29.92,ENE,59,3.0,5.0,93,0.00,,,0.00,Wunderground v.1.15,2013-12-21 16:36:00,
2013-12-21 10:38:00,15.3,13.6,29.92,ENE,62,4.0,5.0,93,0.00,,,0.00,Wunderground v.1.15,2013-12-21 16:38:00,
2013-12-21 10:40:00,15.2,13.5,29.92,NE,37,4.0,4.0,93,0.00,,,0.00,Wunderground v.1.15,2013-12-21 16:40:00,
2013-12-21 10:42:00,15.1,13.4,29.92,East,89,4.0,4.0,93,0.00,,,0.00,Wunderground v.1.15,2013-12-21 16:42:00,
2013-12-21 10:44:00,15.1,13.4,29.92,ENE,70,4.0,4.0,93,0.00,,,0.00,Wunderground v.1.15,2013-12-21 16:44:00,
2013-12-21 10:48:00,15.1,13.4,29.91,NE,52,4.0,4.0,93,0.00,,,0.00,Wunderground v.1.15,2013-12-21 16:48:00,
2013-12-21 10:50:00,15.1,13.4,29.91,ENE,60,4.0,5.0,93,0.00,,,0.00,Wunderground v.1.15,2013-12-21 16:50:00,
2013-12-21 10:51:00,15.1,13.4,29.92,NE,49,4.0,5.0,93,0.00,,,0.00,Wunderground v.1.15,2013-12-21 16:51:00,
2013-12-21 10:53:00,15.0,13.3,29.91,NNE,24,4.0,5.0,93,0.00,,,0.00,Wunderground v.1.15,2013-12-21 16:53:00,
2013-12-21 10:56:00,15.0,13.3,29.91,East,98,4.0,5.0,93,0.00,,,0.00,Wunderground v.1.15,2013-12-21 16:56:00,
2013-12-21 10:58:00,15.1,13.4,29.91,ESE,121,4.0,5.0,93,0.00,,,0.00,Wunderground v.1.15,2013-12-21 16:58:00,
2013-12-21 11:02:00,15.3,13.6,29.91,ENE,59,4.0,7.0,93,0.00,,,0.00,Wunderground v.1.15,2013-12-21 17:02:00,
2013-12-21 11:04:00,15.3,13.6,29.92,ENE,73,3.0,7.0,93,0.00,,,0.00,Wunderground v.1.15,2013-12-21 17:04:00,
2013-12-21 11:06:00,15.4,13.7,29.92,ENE,58,3.0,7.0,93,0.00,,,0.00,Wunderground v.1.15,2013-12-21 17:06:00,
2013-12-21 11:08:00,15.4,13.7,29.92,NE,53,4.0,7.0,93,0.00,,,0.00,Wunderground v.1.15,2013-12-21 17:08:00,
2013-12-21 11:12:00,15.6,13.9,29.92,SE,131,3.0,4.0,93,0.00,,,0.00,Wunderground v.1.15,2013-12-21 17:12:00,
2013-12-21 11:13:00,15.8,14.1,29.92,NE,42,3.0,5.0,93,0.00,,,0.00,Wunderground v.1.15,2013-12-21 17:13:00,
2013-12-21 11:15:00,15.8,14.1,29.92,ENE,57,3.0,5.0,93,0.00,,,0.00,Wunderground v.1.15,2013-12-21 17:15:00,
2013-12-21 11:18:00,15.7,14.0,29.92,ENE,72,3.0,5.0,93,0.00,,,0.00,Wunderground v.1.15,2013-12-21 17:18:00,
2013-12-21 11:20:00,15.7,14.0,29.92,NE,53,3.0,4.0,93,0.00,,,0.00,Wunderground v.1.15,2013-12-21 17:20:00,
2013-12-21 11:24:00,15.7,14.0,29.93,NE,49,4.0,4.0,93,0.00,,,0.00,Wunderground v.1.15,2013-12-21 17:24:00,
2013-12-21 11:26:00,15.8,14.1,29.93,ENE,77,3.0,4.0,93,0.00,,,0.00,Wunderground v.1.15,2013-12-21 17:26:00,
2013-12-21 11:30:00,16.0,14.3,29.93,ENE,71,2.0,2.0,93,0.00,,,0.00,Wunderground v.1.15,2013-12-21 17:30:00,
2013-12-21 11:32:00,16.2,14.5,29.94,ENE,68,2.0,2.0,93,0.00,,,0.00,Wunderground v.1.15,2013-12-21 17:32:00,
2013-12-21 11:33:00,16.3,14.6,29.94,ENE,60,1.0,5.0,93,0.00,,,0.00,Wunderground v.1.15,2013-12-21 17:33:00,
2013-12-21 11:38:00,16.3,14.6,29.95,ENE,71,2.0,5.0,93,0.00,,,0.00,Wunderground v.1.15,2013-12-21 17:38:00,
2013-12-21 11:40:00,16.3,14.6,29.95,NE,52,2.0,2.0,93,0.00,,,0.00,Wunderground v.1.15,2013-12-21 17:40:00,
2013-12-21 11:44:00,16.3,14.6,29.95,ENE,72,3.0,4.0,93,0.00,,,0.00,Wunderground v.1.15,2013-12-21 17:44:00,
2013-12-21 11:46:00,16.4,14.7,29.95,ENE,72,3.0,4.0,93,0.00,,,0.00,Wunderground v.1.15,2013-12-21 17:46:00,
2013-12-21 11:48:00,16.5,14.8,29.94,East,88,2.0,4.0,93,0.00,,,0.00,Wunderground v.1.15,2013-12-21 17:48:00,
2013-12-21 11:54:00,16.8,15.1,29.94,ENE,69,1.0,2.0,93,0.00,,,0.00,Wunderground v.1.15,2013-12-21 17:54:00,
2013-12-21 11:55:00,16.8,15.1,29.93,ESE,121,1.0,3.0,93,0.00,,,0.00,Wunderground v.1.15,2013-12-21 17:55:00,
2013-12-21 12:00:00,16.6,14.7,29.93,ENE,57,2.0,4.0,92,0.00,,,0.00,Wunderground v.1.15,2013-12-21 18:00:00,
2013-12-21 12:02:00,16.5,14.6,29.93,NE,42,3.0,4.0,92,0.00,,,0.00,Wunderground v.1.15,2013-12-21 18:02:00,
2013-12-21 12:04:00,16.6,14.7,29.94,East,90,3.0,4.0,92,0.00,,,0.00,Wunderground v.1.15,2013-12-21 18:04:00,
2013-12-21 12:06:00,16.5,14.6,29.94,East,89,3.0,4.0,92,0.00,,,0.00,Wunderground v.1.15,2013-12-21 18:06:00,
2013-12-21 12:12:00,16.7,15.0,29.93,ENE,75,2.0,4.0,93,0.00,,,0.00,Wunderground v.1.15,2013-12-21 18:12:00,
2013-12-21 12:14:00,16.7,14.8,29.93,ESE,103,2.0,4.0,92,0.00,,,0.00,Wunderground v.1.15,2013-12-21 18:14:00,
2013-12-21 12:17:00,16.9,15.2,29.92,SE,141,2.0,4.0,93,0.00,,,0.00,Wunderground v.1.15,2013-12-21 18:17:00,
2013-12-21 12:19:00,16.9,15.2,29.92,East,101,2.0,2.0,93,0.00,,,0.00,Wunderground v.1.15,2013-12-21 18:19:00,
2013-12-21 12:24:00,16.8,14.9,29.92,ENE,57,1.0,2.0,92,0.00,,,0.00,Wunderground v.1.15,2013-12-21 18:24:00,
2013-12-21 12:26:00,16.8,14.9,29.92,NE,42,1.0,3.0,92,0.00,,,0.00,Wunderground v.1.15,2013-12-21 18:26:00,
2013-12-21 12:32:00,16.8,14.9,29.92,NE,50,2.0,4.0,92,0.00,,,0.00,Wunderground v.1.15,2013-12-21 18:32:00,
2013-12-21 12:36:00,17.0,15.1,29.92,NE,47,3.0,4.0,92,0.00,,,0.00,Wunderground v.1.15,2013-12-21 18:36:00,
2013-12-21 12:39:00,17.4,15.7,29.92,NE,56,3.0,3.0,93,0.00,,,0.00,Wunderground v.1.15,2013-12-21 18:39:00,
2013-12-21 12:44:00,17.5,15.6,29.92,ESE,117,3.0,4.0,92,0.00,,,0.00,Wunderground v.1.15,2013-12-21 18:44:00,
2013-12-21 12:46:00,17.5,15.6,29.92,NE,42,4.0,5.0,92,0.00,,,0.00,Wunderground v.1.15,2013-12-21 18:46:00,
2013-12-21 12:48:00,17.5,15.6,29.91,East,87,4.0,5.0,92,0.00,,,0.00,Wunderground v.1.15,2013-12-21 18:48:00,
2013-12-21 12:50:00,17.5,15.6,29.91,NNE,18,4.0,4.0,92,0.00,,,0.00,Wunderground v.1.15,2013-12-21 18:50:00,
2013-12-21 12:54:00,17.5,15.6,29.92,NE,49,4.0,5.0,92,0.00,,,0.00,Wunderground v.1.15,2013-12-21 18:54:00,
2013-12-21 12:56:00,17.6,15.7,29.92,ENE,57,3.0,5.0,92,0.00,,,0.00,Wunderground v.1.15,2013-12-21 18:56:00,
2013-12-21 12:58:00,17.6,15.7,29.91,ENE,67,4.0,5.0,92,0.00,,,0.00,Wunderground v.1.15,2013-12-21 18:58:00,
2013-12-21 12:59:00,17.7,15.8,29.92,NE,53,4.0,4.0,92,0.00,,,0.00,Wunderground v.1.15,2013-12-21 18:59:00,
2013-12-21 13:04:00,17.8,15.9,29.92,ENE,62,4.0,7.0,92,0.00,,,0.00,Wunderground v.1.15,2013-12-21 19:04:00,
2013-12-21 13:06:00,17.9,16.0,29.91,NE,35,4.0,8.0,92,0.00,,,0.00,Wunderground v.1.15,2013-12-21 19:06:00,
2013-12-21 13:10:00,18.1,16.2,29.90,NE,52,4.0,10.0,92,0.00,,,0.00,Wunderground v.1.15,2013-12-21 19:10:00,
2013-12-21 13:12:00,18.2,16.3,29.90,NE,41,5.0,10.0,92,0.00,,,0.00,Wunderground v.1.15,2013-12-21 19:12:00,
2013-12-21 13:14:00,18.2,16.3,29.90,NE,53,5.0,10.0,92,0.00,,,0.00,Wunderground v.1.15,2013-12-21 19:14:00,
2013-12-21 13:16:00,18.3,16.4,29.90,ENE,70,5.0,10.0,92,0.00,,,0.00,Wunderground v.1.15,2013-12-21 19:16:00,
2013-12-21 13:18:00,18.4,16.5,29.90,ENE,62,5.0,10.0,92,0.00,,,0.00,Wunderground v.1.15,2013-12-21 19:18:00,
2013-12-21 13:21:00,18.5,16.6,29.90,NE,36,4.0,7.0,92,0.00,,,0.00,Wunderground v.1.15,2013-12-21 19:21:00,
2013-12-21 13:23:00,18.5,16.6,29.90,ENE,60,4.0,7.0,92,0.00,,,0.00,Wunderground v.1.15,2013-12-21 19:23:00,
2013-12-21 13:26:00,18.6,16.7,29.90,East,91,4.0,7.0,92,0.00,,,0.00,Wunderground v.1.15,2013-12-21 19:26:00,
2013-12-21 13:28:00,18.6,16.7,29.90,ENE,65,4.0,7.0,92,0.00,,,0.00,Wunderground v.1.15,2013-12-21 19:28:00,
2013-12-21 13:30:00,18.8,16.9,29.91,ENE,77,4.0,4.0,92,0.00,,,0.00,Wunderground v.1.15,2013-12-21 19:30:00,
2013-12-21 13:32:00,18.9,17.0,29.91,ENE,62,4.0,7.0,92,0.00,,,0.00,Wunderground v.1.15,2013-12-21 19:32:00,
2013-12-21 13:34:00,19.1,17.2,29.91,ENE,67,3.0,7.0,92,0.00,,,0.00,Wunderground v.1.15,2013-12-21 19:34:00,
2013-12-21 13:36:00,19.2,17.3,29.91,ENE,57,3.0,7.0,92,0.00,,,0.00,Wunderground v.1.15,2013-12-21 19:36:00,
2013-12-21 13:38:00,19.3,17.1,29.91,NE,49,3.0,7.0,91,0.00,,,0.00,Wunderground v.1.15,2013-12-21 19:38:00,
2013-12-21 13:40:00,19.3,17.1,29.91,ESE,115,3.0,3.0,91,0.00,,,0.00,Wunderground v.1.15,2013-12-21 19:40:00,
2013-12-21 13:41:00,19.4,17.2,29.91,ENE,60,3.0,7.0,91,0.00,,,0.00,Wunderground v.1.15,2013-12-21 19:41:00,
2013-12-21 13:43:00,19.4,17.2,29.90,ENE,66,3.0,7.0,91,0.00,,,0.00,Wunderground v.1.15,2013-12-21 19:43:00,
2013-12-21 13:46:00,19.4,17.2,29.90,NE,55,3.0,7.0,91,0.00,,,0.00,Wunderground v.1.15,2013-12-21 19:46:00,
2013-12-21 13:48:00,19.5,17.3,29.89,East,86,4.0,7.0,91,0.00,,,0.00,Wunderground v.1.15,2013-12-21 19:48:00,
2013-12-21 13:52:00,19.5,17.3,29.88,NE,39,4.0,7.0,91,0.00,,,0.00,Wunderground v.1.15,2013-12-21 19:52:00,
2013-12-21 13:54:00,19.5,17.3,29.88,NE,46,5.0,7.0,91,0.00,,,0.00,Wunderground v.1.15,2013-12-21 19:54:00,
2013-12-21 13:58:00,19.7,17.8,29.88,NE,42,4.0,7.0,92,0.00,,,0.00,Wunderground v.1.15,2013-12-21 19:58:00,
2013-12-21 14:00:00,19.7,17.8,29.88,NNE,27,4.0,7.0,92,0.00,,,0.00,Wunderground v.1.15,2013-12-21 20:00:00,
2013-12-21 14:03:00,19.7,17.8,29.87,NE,56,4.0,7.0,92,0.00,,,0.00,Wunderground v.1.15,2013-12-21 20:03:00,
2013-12-21 14:05:00,19.6,17.7,29.87,NE,36,5.0,7.0,92,0.00,,,0.00,Wunderground v.1.15,2013-12-21 20:05:00,
2013-12-21 14:10:00,19.6,17.7,29.88,NNE,24,6.0,6.0,92,0.00,,,0.00,Wunderground v.1.15,2013-12-21 20:10:00,
2013-12-21 14:12:00,19.6,17.7,29.88,NE,39,6.0,7.0,92,0.00,,,0.00,Wunderground v.1.15,2013-12-21 20:12:00,
2013-12-21 14:18:00,19.5,17.6,29.87,NE,46,6.0,8.0,92,0.00,,,0.00,Wunderground v.1.15,2013-12-21 20:18:00,
2013-12-21 14:20:00,19.4,17.5,29.87,NE,49,6.0,6.0,92,0.00,,,0.00,Wunderground v.1.15,2013-12-21 20:20:00,
2013-12-21 14:24:00,19.4,17.5,29.87,NE,34,6.0,7.0,92,0.00,,,0.00,Wunderground v.1.15,2013-12-21 20:24:00,
2013-12-21 14:25:00,19.3,17.4,29.87,NNE,31,7.0,7.0,92,0.00,,,0.00,Wunderground v.1.15,2013-12-21 20:25:00,
2013-12-21 14:27:00,19.4,17.5,29.88,NNE,14,7.0,7.0,92,0.00,,,0.00,Wunderground v.1.15,2013-12-21 20:27:00,
2013-12-21 14:30:00,19.4,17.5,29.88,NE,36,7.0,8.0,92,0.00,,,0.00,Wunderground v.1.15,2013-12-21 20:30:00,
2013-12-21 14:32:00,19.4,17.7,29.88,NNE,27,7.0,8.0,93,0.00,,,0.00,Wunderground v.1.15,2013-12-21 20:32:00,
2013-12-21 14:36:00,19.6,17.9,29.88,NE,55,6.0,8.0,93,0.00,,,0.00,Wunderground v.1.15,2013-12-21 20:36:00,
2013-12-21 14:38:00,19.6,17.7,29.88,NE,34,6.0,9.0,92,0.00,,,0.00,Wunderground v.1.15,2013-12-21 20:38:00,
2013-12-21 14:40:00,19.6,17.7,29.89,NE,42,6.0,7.0,92,0.00,,,0.00,Wunderground v.1.15,2013-12-21 20:40:00,
2013-12-21 14:44:00,19.6,17.7,29.89,NE,39,7.0,7.0,92,0.00,,,0.00,Wunderground v.1.15,2013-12-21 20:44:00,
2013-12-21 14:47:00,19.7,17.5,29.90,NE,41,7.0,8.0,91,0.00,,,0.00,Wunderground v.1.15,2013-12-21 20:47:00,
2013-12-21 14:50:00,19.7,17.5,29.90,NE,34,7.0,9.0,91,0.00,,,0.00,Wunderground v.1.15,2013-12-21 20:50:00,
2013-12-21 14:54:00,19.7,17.5,29.91,ENE,57,7.0,9.0,91,0.00,,,0.00,Wunderground v.1.15,2013-12-21 20:54:00,
2013-12-21 14:56:00,19.7,17.2,29.91,NE,49,7.0,9.0,90,0.00,,,0.00,Wunderground v.1.15,2013-12-21 20:56:00,
2013-12-21 14:58:00,19.7,17.2,29.90,NNE,30,7.0,9.0,90,0.00,,,0.00,Wunderground v.1.15,2013-12-21 20:58:00,
2013-12-21 15:00:00,19.8,17.3,29.90,NE,54,7.0,7.0,90,0.00,,,0.00,Wunderground v.1.15,2013-12-21 21:00:00,
2013-12-21 15:04:00,19.8,17.3,29.91,NE,39,6.0,7.0,90,0.00,,,0.00,Wunderground v.1.15,2013-12-21 21:04:00,
2013-12-21 15:06:00,19.9,17.4,29.91,NNE,21,6.0,10.0,90,0.00,,,0.00,Wunderground v.1.15,2013-12-21 21:06:00,
2013-12-21 15:07:00,19.8,17.3,29.90,NNE,21,7.0,10.0,90,0.00,,,0.00,Wunderground v.1.15,2013-12-21 21:07:00,
2013-12-21 15:12:00,19.8,17.3,29.90,NE,40,7.0,8.0,90,0.00,,,0.00,Wunderground v.1.15,2013-12-21 21:12:00,
2013-12-21 15:16:00,19.9,17.4,29.90,NE,49,8.0,8.0,90,0.00,,,0.00,Wunderground v.1.15,2013-12-21 21:16:00,
2013-12-21 15:20:00,19.9,17.4,29.90,NE,45,7.0,7.0,90,0.00,,,0.00,Wunderground v.1.15,2013-12-21 21:20:00,
2013-12-21 15:24:00,19.9,17.4,29.91,NE,41,7.0,11.0,90,0.00,,,0.00,Wunderground v.1.15,2013-12-21 21:24:00,
2013-12-21 15:26:00,19.8,17.1,29.90,NE,38,8.0,11.0,89,0.00,,,0.00,Wunderground v.1.15,2013-12-21 21:26:00,
2013-12-21 15:28:00,19.8,17.1,29.90,NNE,21,8.0,11.0,89,0.00,,,0.00,Wunderground v.1.15,2013-12-21 21:28:00,
2013-12-21 15:29:00,19.8,17.1,29.91,North,6,8.0,8.0,89,0.00,,,0.00,Wunderground v.1.15,2013-12-21 21:29:00,
2013-12-21 15:34:00,19.7,17.0,29.91,NE,42,8.0,9.0,89,0.00,,,0.00,Wunderground v.1.15,2013-12-21 21:34:00,
2013-12-21 15:36:00,19.7,17.0,29.91,NNE,24,8.0,9.0,89,0.00,,,0.00,Wunderground v.1.15,2013-12-21 21:36:00,
2013-12-21 15:38:00,19.7,17.2,29.91,NNE,23,8.0,9.0,90,0.00,,,0.00,Wunderground v.1.15,2013-12-21 21:38:00,
2013-12-21 15:40:00,19.6,17.1,29.91,NNE,29,8.0,9.0,90,0.00,,,0.00,Wunderground v.1.15,2013-12-21 21:40:00,
2013-12-21 15:44:00,19.5,17.0,29.92,NNE,21,8.0,9.0,90,0.00,,,0.00,Wunderground v.1.15,2013-12-21 21:44:00,
2013-12-21 15:46:00,19.5,17.0,29.92,NE,36,8.0,9.0,90,0.00,,,0.00,Wunderground v.1.15,2013-12-21 21:46:00,
2013-12-21 15:48:00,19.4,16.9,29.91,NE,35,8.0,10.0,90,0.00,,,0.00,Wunderground v.1.15,2013-12-21 21:48:00,
2013-12-21 15:49:00,19.4,16.9,29.90,NE,42,8.0,8.0,90,0.00,,,0.00,Wunderground v.1.15,2013-12-21 21:49:00,
2013-12-21 15:54:00,19.3,16.8,29.90,NE,46,8.0,10.0,90,0.00,,,0.00,Wunderground v.1.15,2013-12-21 21:54:00,
2013-12-21 16:00:00,19.2,16.7,29.91,NE,44,9.0,9.0,90,0.00,,,0.00,Wunderground v.1.15,2013-12-21 22:00:00,
2013-12-21 16:02:00,19.2,16.7,29.91,NE,47,9.0,9.0,90,0.00,,,0.00,Wunderground v.1.15,2013-12-21 22:02:00,
2013-12-21 16:04:00,19.2,16.7,29.91,NE,49,8.0,9.0,90,0.00,,,0.00,Wunderground v.1.15,2013-12-21 22:04:00,
2013-12-21 16:08:00,19.1,16.7,29.91,North,11,8.0,10.0,90,0.00,,,0.00,Wunderground v.1.15,2013-12-21 22:08:00,
2013-12-21 16:13:00,19.1,16.7,29.91,NNE,23,8.0,10.0,90,0.00,,,0.00,Wunderground v.1.15,2013-12-21 22:13:00,
2013-12-21 16:16:00,19.0,16.6,29.92,NNE,30,8.0,12.0,90,0.00,,,0.00,Wunderground v.1.15,2013-12-21 22:16:00,
2013-12-21 16:18:00,19.0,16.6,29.91,NNE,25,9.0,12.0,90,0.00,,,0.00,Wunderground v.1.15,2013-12-21 22:18:00,
2013-12-21 16:22:00,18.9,16.5,29.91,NNE,31,9.0,11.0,90,0.00,,,0.00,Wunderground v.1.15,2013-12-21 22:22:00,
2013-12-21 16:24:00,18.8,16.4,29.91,NE,47,9.0,11.0,90,0.00,,,0.00,Wunderground v.1.15,2013-12-21 22:24:00,
2013-12-21 16:28:00,18.8,16.4,29.91,NE,34,8.0,11.0,90,0.00,,,0.00,Wunderground v.1.15,2013-12-21 22:28:00,
2013-12-21 16:30:00,18.7,16.3,29.90,NE,39,8.0,8.0,90,0.00,,,0.00,Wunderground v.1.15,2013-12-21 22:30:00,
2013-12-21 16:32:00,18.6,16.2,29.91,ENE,60,8.0,8.0,90,0.00,,,0.00,Wunderground v.1.15,2013-12-21 22:32:00,
2013-12-21 16:33:00,18.6,16.2,29.92,NE,44,8.0,10.0,90,0.00,,,0.00,Wunderground v.1.15,2013-12-21 22:33:00,
2013-12-21 16:38:00,18.5,16.1,29.92,NE,34,8.0,10.0,90,0.00,,,0.00,Wunderground v.1.15,2013-12-21 22:38:00,
2013-12-21 16:40:00,18.5,16.1,29.92,NE,49,8.0,8.0,90,0.00,,,0.00,Wunderground v.1.15,2013-12-21 22:40:00,
2013-12-21 16:42:00,18.5,16.1,29.92,NE,44,7.0,8.0,90,0.00,,,0.00,Wunderground v.1.15,2013-12-21 22:42:00,
2013-12-21 16:44:00,18.5,16.1,29.92,NNE,24,7.0,8.0,90,0.00,,,0.00,Wunderground v.1.15,2013-12-21 22:44:00,
2013-12-21 16:46:00,18.5,16.1,29.92,NE,53,7.0,8.0,90,0.00,,,0.00,Wunderground v.1.15,2013-12-21 22:46:00,
2013-12-21 16:48:00,18.3,15.9,29.92,NE,39,7.0,11.0,90,0.00,,,0.00,Wunderground v.1.15,2013-12-21 22:48:00,
2013-12-21 16:52:00,18.2,15.8,29.91,NE,47,9.0,14.0,90,0.00,,,0.00,Wunderground v.1.15,2013-12-21 22:52:00,
2013-12-21 16:53:00,18.2,15.8,29.91,NNE,31,9.0,14.0,90,0.00,,,0.00,Wunderground v.1.15,2013-12-21 22:53:00,
2013-12-21 16:55:00,18.1,15.7,29.91,ENE,57,10.0,14.0,90,0.00,,,0.00,Wunderground v.1.15,2013-12-21 22:55:00,
2013-12-21 16:58:00,18.1,15.7,29.91,NNE,29,10.0,14.0,90,0.00,,,0.00,Wunderground v.1.15,2013-12-21 22:58:00,
2013-12-21 17:00:00,18.1,15.7,29.91,NNE,29,10.0,10.0,90,0.00,,,0.00,Wunderground v.1.15,2013-12-21 23:00:00,
2013-12-21 17:02:00,18.0,15.6,29.91,NNE,15,10.0,10.0,90,0.00,,,0.00,Wunderground v.1.15,2013-12-21 23:02:00,
2013-12-21 17:08:00,18.0,15.6,29.92,NNW,339,9.0,11.0,90,0.00,,,0.00,Wunderground v.1.15,2013-12-21 23:08:00,
2013-12-21 17:10:00,18.0,15.6,29.92,NE,34,9.0,12.0,90,0.00,,,0.00,Wunderground v.1.15,2013-12-21 23:10:00,
2013-12-21 17:12:00,17.9,15.5,29.92,NNE,18,9.0,12.0,90,0.00,,,0.00,Wunderground v.1.15,2013-12-21 23:12:00,
2013-12-21 17:14:00,17.9,15.5,29.93,NE,47,10.0,12.0,90,0.00,,,0.00,Wunderground v.1.15,2013-12-21 23:14:00,
2013-12-21 17:15:00,17.9,15.5,29.93,NE,39,10.0,12.0,90,0.00,,,0.00,Wunderground v.1.15,2013-12-21 23:15:00,
2013-12-21 17:17:00,17.9,15.5,29.92,NNE,31,10.0,12.0,90,0.00,,,0.00,Wunderground v.1.15,2013-12-21 23:17:00,
2013-12-21 17:22:00,17.9,15.5,29.92,NNE,31,9.0,10.0,90,0.00,,,0.00,Wunderground v.1.15,2013-12-21 23:22:00,
2013-12-21 17:26:00,17.8,15.6,29.93,NNE,27,9.0,10.0,91,0.00,,,0.00,Wunderground v.1.15,2013-12-21 23:26:00,
2013-12-21 17:28:00,17.8,15.6,29.92,NNE,15,9.0,12.0,91,0.00,,,0.00,Wunderground v.1.15,2013-12-21 23:28:00,
2013-12-21 17:32:00,17.7,15.5,29.91,NNE,32,10.0,10.0,91,0.00,,,0.00,Wunderground v.1.15,2013-12-21 23:32:00,
2013-12-21 17:36:00,17.6,15.4,29.92,NNE,23,10.0,11.0,91,0.00,,,0.00,Wunderground v.1.15,2013-12-21 23:36:00,
2013-12-21 17:37:00,17.6,15.4,29.92,NNE,20,10.0,11.0,91,0.00,,,0.00,Wunderground v.1.15,2013-12-21 23:37:00,
2013-12-21 17:39:00,17.6,15.4,29.92,NNE,20,10.0,11.0,91,0.00,,,0.00,Wunderground v.1.15,2013-12-21 23:39:00,
2013-12-21 17:42:00,17.5,15.3,29.92,NNE,18,10.0,11.0,91,0.00,,,0.00,Wunderground v.1.15,2013-12-21 23:42:00,
2013-12-21 17:46:00,17.5,15.3,29.93,NNE,15,10.0,11.0,91,0.00,,,0.00,Wunderground v.1.15,2013-12-21 23:46:00,
2013-12-21 17:48:00,17.5,15.3,29.94,NE,34,9.0,11.0,91,0.00,,,0.00,Wunderground v.1.15,2013-12-21 23:48:00,
2013-12-21 17:50:00,17.6,15.4,29.94,NNE,30,9.0,9.0,91,0.00,,,0.00,Wunderground v.1.15,2013-12-21 23:50:00,
2013-12-21 17:52:00,17.5,15.3,29.94,NNE,13,9.0,12.0,91,0.00,,,0.00,Wunderground v.1.15,2013-12-21 23:52:00,
2013-12-21 17:54:00,17.5,15.3,29.94,NE,47,9.0,12.0,91,0.00,,,0.00,Wunderground v.1.15,2013-12-21 23:54:00,
2013-12-21 17:56:00,17.4,15.2,29.94,NE,36,9.0,12.0,91,0.00,,,0.00,Wunderground v.1.15,2013-12-21 23:56:00,
2013-12-21 17:57:00,17.4,15.2,29.93,NNE,25,10.0,12.0,91,0.00,,,0.00,Wunderground v.1.15,2013-12-21 23:57:00,
2013-12-21 17:59:00,17.4,15.2,29.93,NNE,16,10.0,10.0,91,0.00,,,0.00,Wunderground v.1.15,2013-12-21 23:59:00,
2013-12-21 18:02:00,17.4,15.2,29.93,NNE,22,10.0,10.0,91,0.00,,,0.00,Wunderground v.1.15,2013-12-22 00:02:00,
2013-12-21 18:06:00,17.4,15.2,29.92,North,11,10.0,11.0,91,0.00,,,0.00,Wunderground v.1.15,2013-12-22 00:06:00,
2013-12-21 18:08:00,17.4,15.2,29.93,NNE,14,10.0,11.0,91,0.00,,,0.00,Wunderground v.1.15,2013-12-22 00:08:00,
2013-12-21 18:10:00,17.4,15.2,29.93,NNE,15,9.0,9.0,91,0.00,,,0.00,Wunderground v.1.15,2013-12-22 00:10:00,
2013-12-21 18:12:00,17.4,15.2,29.92,North,11,10.0,11.0,91,0.00,,,0.00,Wunderground v.1.15,2013-12-22 00:12:00,
2013-12-21 18:16:00,17.3,15.1,29.93,NE,34,10.0,11.0,91,0.00,,,0.00,Wunderground v.1.15,2013-12-22 00:16:00,
2013-12-21 18:18:00,17.3,15.1,29.93,NNE,20,11.0,11.0,91,0.00,,,0.00,Wunderground v.1.15,2013-12-22 00:18:00,
2013-12-21 18:19:00,17.3,15.1,29.92,NNE,32,11.0,13.0,91,0.00,,,0.00,Wunderground v.1.15,2013-12-22 00:19:00,
2013-12-21 18:21:00,17.3,15.4,29.92,NNE,20,12.0,13.0,92,0.00,,,0.00,Wunderground v.1.15,2013-12-22 00:21:00,
2013-12-21 18:26:00,17.3,15.4,29.93,NE,34,11.0,13.0,92,0.00,,,0.00,Wunderground v.1.15,2013-12-22 00:26:00,
2013-12-21 18:28:00,17.3,15.4,29.93,NE,34,11.0,13.0,92,0.00,,,0.00,Wunderground v.1.15,2013-12-22 00:28:00,
2013-12-21 18:30:00,17.3,15.4,29.92,NNE,33,11.0,12.0,92,0.00,,,0.00,Wunderground v.1.15,2013-12-22 00:30:00,
2013-12-21 18:32:00,17.3,15.4,29.93,NNE,27,11.0,12.0,92,0.00,,,0.00,Wunderground v.1.15,2013-12-22 00:32:00,
2013-12-21 18:36:00,17.3,15.4,29.93,NNE,16,10.0,12.0,92,0.00,,,0.00,Wunderground v.1.15,2013-12-22 00:36:00,
2013-12-21 18:38:00,17.3,15.4,29.93,NE,42,10.0,12.0,92,0.00,,,0.00,Wunderground v.1.15,2013-12-22 00:38:00,
2013-12-21 18:40:00,17.3,15.4,29.94,NE,34,10.0,10.0,92,0.00,,,0.00,Wunderground v.1.15,2013-12-22 00:40:00,
2013-12-21 18:43:00,17.3,15.4,29.93,North,9,9.0,10.0,92,0.00,,,0.00,Wunderground v.1.15,2013-12-22 00:43:00,
2013-12-21 18:46:00,17.2,15.3,29.93,NE,36,9.0,11.0,92,0.00,,,0.00,Wunderground v.1.15,2013-12-22 00:46:00,
2013-12-21 18:50:00,17.2,15.3,29.93,NNE,13,10.0,14.0,92,0.00,,,0.00,Wunderground v.1.15,2013-12-22 00:50:00,
2013-12-21 18:54:00,17.2,15.3,29.93,NE,44,11.0,14.0,92,0.00,,,0.00,Wunderground v.1.15,2013-12-22 00:54:00,
2013-12-21 18:56:00,17.1,15.2,29.93,NNE,23,11.0,14.0,92,0.00,,,0.00,Wunderground v.1.15,2013-12-22 00:56:00,
2013-12-21 18:58:00,17.2,15.3,29.93,North,6,11.0,14.0,92,0.00,,,0.00,Wunderground v.1.15,2013-12-22 00:58:00,
2013-12-21 19:00:00,17.2,15.3,29.93,NE,46,11.0,11.0,92,0.00,,,0.00,Wunderground v.1.15,2013-12-22 01:00:00,
2013-12-21 19:01:00,17.1,15.2,29.93,NE,40,10.0,11.0,92,0.00,,,0.00,Wunderground v.1.15,2013-12-22 01:01:00,
2013-12-21 19:03:00,17.1,15.2,29.93,NE,40,10.0,11.0,92,0.00,,,0.00,Wunderground v.1.15,2013-12-22 01:03:00,
2013-12-21 19:06:00,17.2,15.3,29.93,NE,53,10.0,11.0,92,0.00,,,0.00,Wunderground v.1.15,2013-12-22 01:06:00,
2013-12-21 19:08:00,17.1,15.2,29.93,NNE,30,10.0,13.0,92,0.00,,,0.00,Wunderground v.1.15,2013-12-22 01:08:00,
2013-12-21 19:14:00,17.1,15.2,29.92,NNE,30,11.0,13.0,92,0.00,,,0.00,Wunderground v.1.15,2013-12-22 01:14:00,
2013-12-21 19:16:00,17.1,15.2,29.92,NNE,22,11.0,13.0,92,0.00,,,0.00,Wunderground v.1.15,2013-12-22 01:16:00,
2013-12-21 19:20:00,17.1,15.2,29.92,NE,35,11.0,11.0,92,0.00,,,0.00,Wunderground v.1.15,2013-12-22 01:20:00,
2013-12-21 19:22:00,17.1,15.2,29.92,NNE,18,11.0,11.0,92,0.00,,,0.00,Wunderground v.1.15,2013-12-22 01:22:00,
2013-12-21 19:23:00,17.1,15.2,29.92,NNE,29,10.0,11.0,92,0.00,,,0.00,Wunderground v.1.15,2013-12-22 01:23:00,
2013-12-21 19:25:00,17.1,15.2,29.92,NNE,20,10.0,14.0,92,0.00,,,0.00,Wunderground v.1.15,2013-12-22 01:25:00,
2013-12-21 19:28:00,17.0,15.1,29.92,NNE,20,10.0,14.0,92,0.00,,,0.00,Wunderground v.1.15,2013-12-22 01:28:00,
2013-12-21 19:30:00,17.0,15.1,29.92,NNE,27,10.0,10.0,92,0.00,,,0.00,Wunderground v.1.15,2013-12-22 01:30:00,
2013-12-21 19:32:00,17.0,15.1,29.92,NNE,30,10.0,10.0,92,0.00,,,0.00,Wunderground v.1.15,2013-12-22 01:32:00,
2013-12-21 19:36:00,17.0,15.1,29.92,NNE,22,10.0,10.0,92,0.00,,,0.00,Wunderground v.1.15,2013-12-22 01:36:00,
2013-12-21 19:40:00,17.0,15.1,29.92,NNE,20,10.0,16.0,92,0.00,,,0.00,Wunderground v.1.15,2013-12-22 01:40:00,
2013-12-21 19:42:00,16.9,15.0,29.91,NE,35,11.0,16.0,92,0.00,,,0.00,Wunderground v.1.15,2013-12-22 01:42:00,
2013-12-21 19:47:00,16.8,15.1,29.91,NNE,18,12.0,16.0,93,0.00,,,0.00,Wunderground v.1.15,2013-12-22 01:47:00,
2013-12-21 19:50:00,16.8,15.1,29.90,NE,39,12.0,12.0,93,0.00,,,0.00,Wunderground v.1.15,2013-12-22 01:50:00,
2013-12-21 19:54:00,16.7,15.0,29.90,NE,46,12.0,12.0,93,0.00,,,0.00,Wunderground v.1.15,2013-12-22 01:54:00,
2013-12-21 19:56:00,16.6,14.9,29.90,NNE,20,12.0,15.0,93,0.00,,,0.00,Wunderground v.1.15,2013-12-22 01:56:00,
2013-12-21 19:58:00,16.5,14.8,29.90,NE,36,13.0,15.0,93,0.00,,,0.00,Wunderground v.1.15,2013-12-22 01:58:00,
2013-12-21 20:00:00,16.5,14.8,29.90,NE,53,13.0,15.0,93,0.00,,,0.00,Wunderground v.1.15,2013-12-22 02:00:00,
2013-12-21 20:02:00,16.5,14.8,29.90,NE,40,13.0,15.0,93,0.00,,,0.00,Wunderground v.1.15,2013-12-22 02:02:00,
2013-12-21 20:04:00,16.4,14.7,29.90,NE,42,13.0,15.0,93,0.00,,,0.00,Wunderground v.1.15,2013-12-22 02:04:00,
2013-12-21 20:05:00,16.4,14.7,29.90,NE,46,13.0,15.0,93,0.00,,,0.00,Wunderground v.1.15,2013-12-22 02:05:00,
2013-12-21 20:07:00,16.4,14.7,29.90,NNE,29,12.0,15.0,93,0.00,,,0.00,Wunderground v.1.15,2013-12-22 02:07:00,
2013-12-21 20:10:00,16.4,14.7,29.90,NNE,16,12.0,12.0,93,0.00,,,0.00,Wunderground v.1.15,2013-12-22 02:10:00,
2013-12-21 20:12:00,16.4,14.7,29.90,NNE,32,12.0,13.0,93,0.00,,,0.00,Wunderground v.1.15,2013-12-22 02:12:00,
2013-12-21 20:16:00,16.3,14.6,29.90,NE,46,12.0,15.0,93,0.00,,,0.00,Wunderground v.1.15,2013-12-22 02:16:00,
2013-12-21 20:18:00,16.3,14.6,29.90,NNE,20,13.0,15.0,93,0.00,,,0.00,Wunderground v.1.15,2013-12-22 02:18:00,
2013-12-21 20:20:00,16.3,14.6,29.90,NNE,27,13.0,13.0,93,0.00,,,0.00,Wunderground v.1.15,2013-12-22 02:20:00,
2013-12-21 20:26:00,16.3,14.9,29.90,NNE,30,13.0,16.0,94,0.00,,,0.00,Wunderground v.1.15,2013-12-22 02:26:00,
2013-12-21 20:27:00,16.2,14.8,29.90,NE,42,13.0,16.0,94,0.00,,,0.00,Wunderground v.1.15,2013-12-22 02:27:00,
2013-12-21 20:29:00,16.2,14.8,29.90,NNE,25,13.0,13.0,94,0.00,,,0.00,Wunderground v.1.15,2013-12-22 02:29:00,
2013-12-21 20:34:00,16.2,14.8,29.90,NE,39,13.0,15.0,94,0.00,,,0.00,Wunderground v.1.15,2013-12-22 02:34:00,
2013-12-21 20:36:00,16.2,14.8,29.90,NNE,26,13.0,15.0,94,0.00,,,0.00,Wunderground v.1.15,2013-12-22 02:36:00,
2013-12-21 20:42:00,16.2,14.8,29.90,NE,39,13.0,15.0,94,0.00,,,0.00,Wunderground v.1.15,2013-12-22 02:42:00,
2013-12-21 20:44:00,16.1,14.7,29.90,NNE,18,13.0,15.0,94,0.00,,,0.00,Wunderground v.1.15,2013-12-22 02:44:00,
2013-12-21 20:46:00,16.1,14.7,29.90,NNE,32,13.0,15.0,94,0.00,,,0.00,Wunderground v.1.15,2013-12-22 02:46:00,
2013-12-21 20:49:00,16.1,14.7,29.90,NE,34,12.0,14.0,94,0.00,,,0.00,Wunderground v.1.15,2013-12-22 02:49:00,
2013-12-21 20:51:00,16.1,14.7,29.90,NNE,23,12.0,14.0,94,0.00,,,0.00,Wunderground v.1.15,2013-12-22 02:51:00,
2013-12-21 20:56:00,16.2,14.8,29.90,NNE,32,13.0,14.0,94,0.00,,,0.00,Wunderground v.1.15,2013-12-22 02:56:00,
2013-12-21 20:58:00,16.2,14.8,29.90,NNE,19,13.0,14.0,94,0.00,,,0.00,Wunderground v.1.15,2013-12-22 02:58:00,
2013-12-21 21:00:00,16.2,14.8,29.90,NE,39,13.0,15.0,94,0.00,,,0.00,Wunderground v.1.15,2013-12-22 03:00:00,
2013-12-21 21:02:00,16.1,14.7,29.90,NNE,29,13.0,15.0,94,0.00,,,0.00,Wunderground v.1.15,2013-12-22 03:02:00,
2013-12-21 21:04:00,16.1,14.7,29.90,NNE,19,13.0,15.0,94,0.00,,,0.00,Wunderground v.1.15,2013-12-22 03:04:00,
2013-12-21 21:06:00,16.1,14.7,29.90,North,352,13.0,15.0,94,0.00,,,0.00,Wunderground v.1.15,2013-12-22 03:06:00,
2013-12-21 21:08:00,16.1,14.7,29.90,NE,36,13.0,16.0,94,0.00,,,0.00,Wunderground v.1.15,2013-12-22 03:08:00,
2013-12-21 21:09:00,16.2,14.8,29.90,NE,41,13.0,13.0,94,0.00,,,0.00,Wunderground v.1.15,2013-12-22 03:09:00,
2013-12-21 21:14:00,16.2,14.8,29.90,NNE,29,12.0,13.0,94,0.00,,,0.00,Wunderground v.1.15,2013-12-22 03:14:00,
2013-12-21 21:16:00,16.2,14.8,29.90,NNE,23,12.0,15.0,94,0.00,,,0.00,Wunderground v.1.15,2013-12-22 03:16:00,
2013-12-21 21:20:00,16.1,14.7,29.90,NE,46,12.0,12.0,94,0.00,,,0.00,Wunderground v.1.15,2013-12-22 03:20:00,
2013-12-21 21:22:00,16.2,14.8,29.90,NNE,19,11.0,16.0,94,0.00,,,0.00,Wunderground v.1.15,2013-12-22 03:22:00,
2013-12-21 21:24:00,16.1,14.7,29.91,NE,36,12.0,16.0,94,0.00,,,0.00,Wunderground v.1.15,2013-12-22 03:24:00,
2013-12-21 21:26:00,16.2,14.8,29.90,NE,46,12.0,16.0,94,0.00,,,0.00,Wunderground v.1.15,2013-12-22 03:26:00,
2013-12-21 21:28:00,16.1,14.7,29.90,NE,51,11.0,16.0,94,0.00,,,0.00,Wunderground v.1.15,2013-12-22 03:28:00,
2013-12-21 21:30:00,16.1,14.7,29.90,NNE,27,11.0,13.0,94,0.00,,,0.00,Wunderground v.1.15,2013-12-22 03:30:00,
2013-12-21 21:33:00,16.1,14.7,29.90,NNE,23,11.0,13.0,94,0.00,,,0.00,Wunderground v.1.15,2013-12-22 03:33:00,
2013-12-21 21:36:00,16.1,14.7,29.91,NE,44,11.0,13.0,94,0.00,,,0.00,Wunderground v.1.15,2013-12-22 03:36:00,
2013-12-21 21:38:00,16.1,14.7,29.90,NE,52,11.0,13.0,94,0.00,,,0.00,Wunderground v.1.15,2013-12-22 03:38:00,
2013-12-21 21:40:00,16.1,14.7,29.90,NNE,21,12.0,12.0,94,0.00,,,0.00,Wunderground v.1.15,2013-12-22 03:40:00,
2013-12-21 21:42:00,16.1,14.7,29.90,NNE,20,12.0,13.0,94,0.00,,,0.00,Wunderground v.1.15,2013-12-22 03:42:00,
2013-12-21 21:46:00,16.2,14.8,29.91,NNE,21,12.0,15.0,94,0.00,,,0.00,Wunderground v.1.15,2013-12-22 03:46:00,
2013-12-21 21:48:00,16.2,14.8,29.91,NNE,15,12.0,15.0,94,0.00,,,0.00,Wunderground v.1.15,2013-12-22 03:48:00,
2013-12-21 21:52:00,16.1,14.7,29.91,NNE,29,12.0,14.0,94,0.00,,,0.00,Wunderground v.1.15,2013-12-22 03:52:00,
2013-12-21 21:55:00,16.1,14.7,29.91,NE,51,12.0,14.0,94,0.00,,,0.00,Wunderground v.1.15,2013-12-22 03:55:00,
2013-12-21 21:58:00,16.1,14.7,29.91,NNE,30,12.0,14.0,94,0.00,,,0.00,Wunderground v.1.15,2013-12-22 03:58:00,
2013-12-21 22:02:00,16.0,14.6,29.91,NNE,31,12.0,13.0,94,0.00,,,0.00,Wunderground v.1.15,2013-12-22 04:02:00,
2013-12-21 22:04:00,16.0,14.6,29.91,NNE,31,12.0,17.0,94,0.00,,,0.00,Wunderground v.1.15,2013-12-22 04:04:00,
2013-12-21 22:08:00,16.0,14.6,29.91,NNE,32,12.0,17.0,94,0.00,,,0.00,Wunderground v.1.15,2013-12-22 04:08:00,
2013-12-21 22:10:00,16.0,14.6,29.91,NE,37,13.0,13.0,94,0.00,,,0.00,Wunderground v.1.15,2013-12-22 04:10:00,
2013-12-21 22:12:00,16.0,14.6,29.91,NNE,18,13.0,16.0,94,0.00,,,0.00,Wunderground v.1.15,2013-12-22 04:12:00,
2013-12-21 22:13:00,16.0,14.6,29.91,NNE,12,13.0,16.0,94,0.00,,,0.00,Wunderground v.1.15,2013-12-22 04:13:00,
2013-12-21 22:18:00,16.0,14.6,29.91,NE,34,13.0,16.0,94,0.00,,,0.00,Wunderground v.1.15,2013-12-22 04:18:00,
2013-12-21 22:24:00,16.0,14.6,29.92,NNE,19,12.0,14.0,94,0.00,,,0.00,Wunderground v.1.15,2013-12-22 04:24:00,
2013-12-21 22:26:00,16.0,14.6,29.91,NNE,25,12.0,14.0,94,0.00,,,0.00,Wunderground v.1.15,2013-12-22 04:26:00,
2013-12-21 22:30:00,15.9,14.2,29.92,North,11,12.0,12.0,93,0.00,,,0.00,Wunderground v.1.15,2013-12-22 04:30:00,
2013-12-21 22:32:00,15.9,14.2,29.92,North,1,11.0,16.0,93,0.00,,,0.00,Wunderground v.1.15,2013-12-22 04:32:00,
2013-12-21 22:34:00,15.8,14.1,29.92,North,9,12.0,16.0,93,0.00,,,0.00,Wunderground v.1.15,2013-12-22 04:34:00,
2013-12-21 22:35:00,15.8,14.1,29.92,NNE,29,12.0,16.0,93,0.00,,,0.00,Wunderground v.1.15,2013-12-22 04:35:00,
2013-12-21 22:37:00,15.7,14.0,29.92,NE,46,12.0,16.0,93,0.00,,,0.00,Wunderground v.1.15,2013-12-22 04:37:00,
2013-12-21 22:40:00,15.6,13.9,29.91,NNE,18,13.0,14.0,93,0.00,,,0.00,Wunderground v.1.15,2013-12-22 04:40:00,
2013-12-21 22:42:00,15.6,13.9,29.91,NNE,19,13.0,14.0,93,0.00,,,0.00,Wunderground v.1.15,2013-12-22 04:42:00,
2013-12-21 22:44:00,15.5,13.8,29.91,North,9,13.0,14.0,93,0.00,,,0.00,Wunderground v.1.15,2013-12-22 04:44:00,
2013-12-21 22:46:00,15.5,13.8,29.91,NNE,25,13.0,14.0,93,0.00,,,0.00,Wunderground v.1.15,2013-12-22 04:46:00,
2013-12-21 22:52:00,15.3,13.6,29.91,NNE,24,12.0,14.0,93,0.00,,,0.00,Wunderground v.1.15,2013-12-22 04:52:00,
2013-12-21 22:54:00,15.3,13.6,29.91,NE,36,12.0,14.0,93,0.00,,,0.00,Wunderground v.1.15,2013-12-22 04:54:00,
2013-12-21 22:56:00,15.2,13.5,29.91,NNE,32,12.0,14.0,93,0.00,,,0.00,Wunderground v.1.15,2013-12-22 04:56:00,
2013-12-21 22:59:00,15.2,13.5,29.91,NE,36,12.0,17.0,93,0.00,,,0.00,Wunderground v.1.15,2013-12-22 04:59:00,
2013-12-21 23:02:00,15.1,13.4,29.92,NNE,29,13.0,17.0,93,0.00,,,0.00,Wunderground v.1.15,2013-12-22 05:02:00,
2013-12-21 23:04:00,15.1,13.4,29.91,North,11,13.0,17.0,93,0.00,,,0.00,Wunderground v.1.15,2013-12-22 05:04:00,
2013-12-21 23:06:00,15.0,13.3,29.91,NNE,18,13.0,17.0,93,0.00,,,0.00,Wunderground v.1.15,2013-12-22 05:06:00,
2013-12-21 23:10:00,14.8,13.1,29.91,NE,39,12.0,12.0,93,0.00,,,0.00,Wunderground v.1.15,2013-12-22 05:10:00,
2013-12-21 23:12:00,14.7,13.0,29.91,North,354,11.0,12.0,93,0.00,,,0.00,Wunderground v.1.15,2013-12-22 05:12:00,
2013-12-21 23:18:00,14.5,12.8,29.91,NE,44,12.0,14.0,93,0.00,,,0.00,Wunderground v.1.15,2013-12-22 05:18:00,
2013-12-21 23:24:00,14.3,12.6,29.91,NNE,13,13.0,16.0,93,0.00,,,0.00,Wunderground v.1.15,2013-12-22 05:24:00,
2013-12-21 23:28:00,14.2,12.5,29.91,NNE,13,12.0,16.0,93,0.00,,,0.00,Wunderground v.1.15,2013-12-22 05:28:00,
2013-12-21 23:30:00,14.1,12.4,29.91,NE,47,13.0,13.0,93,0.00,,,0.00,Wunderground v.1.15,2013-12-22 05:30:00,
2013-12-21 23:32:00,14.1,12.4,29.91,North,4,13.0,17.0,93,0.00,,,0.00,Wunderground v.1.15,2013-12-22 05:32:00,
2013-12-21 23:36:00,14.1,12.4,29.91,NNE,23,14.0,17.0,93,0.00,,,0.00,Wunderground v.1.15,2013-12-22 05:36:00,
2013-12-21 23:38:00,14.1,12.4,29.91,North,11,14.0,17.0,93,0.00,,,0.00,Wunderground v.1.15,2013-12-22 05:38:00,
2013-12-21 23:40:00,14.1,12.4,29.91,NNE,13,13.0,15.0,93,0.00,,,0.00,Wunderground v.1.15,2013-12-22 05:40:00,
2013-12-21 23:42:00,14.1,12.4,29.91,NNE,18,13.0,15.0,93,0.00,,,0.00,Wunderground v.1.15,2013-12-22 05:42:00,
2013-12-21 23:44:00,14.0,12.3,29.91,NNE,18,12.0,15.0,93,0.00,,,0.00,Wunderground v.1.15,2013-12-22 05:44:00,
2013-12-21 23:48:00,14.0,12.3,29.91,NNE,23,12.0,19.0,93,0.00,,,0.00,Wunderground v.1.15,2013-12-22 05:48:00,
2013-12-21 23:50:00,14.1,12.4,29.92,NNE,30,13.0,13.0,93,0.00,,,0.00,Wunderground v.1.15,2013-12-22 05:50:00,
2013-12-21 23:54:00,14.1,12.4,29.92,NNE,25,12.0,13.0,93,0.00,,,0.00,Wunderground v.1.15,2013-12-22 05:54:00,
2013-12-21 23:56:00,14.1,12.4,29.92,North,4,12.0,13.0,93,0.00,,,0.00,Wunderground v.1.15,2013-12-22 05:56:00,
2013-12-21 23:58:00,14.1,12.4,29.92,North,6,12.0,13.0,93,0.00,,,0.00,Wunderground v.1.15,2013-12-22 05:58:00,